Alpine Mystery — VRFP2 — position and weather

sailwx.info

Track history (hours):
 
Tides and Currents Weather Stations Pressure Air Temp Water Temp Dewpoint Dewpoint Depression Visibility Wind Speed Wind Dir Waves Ship Positions

Alpine Mystery

Last reported at 2018-Apr-22 13:13 UTC. Time now 2018-Apr-22 14:35 UTC.
Position N 09°14' W 079°56'.

Length 183 m; draft 10.5 m.

Type: Tanker. MMSI: 477595800.

Date/timePositionNaut miles runAvg speedWind from/ knotsBaromVisibWave heightAir tempDewpointWater temp
2018-Apr-22 13:13N 09°14' W 079°56'2 4.8
2018-Apr-22 12:45N 09°16' W 079°55'0 1.9
2018-Apr-22 12:30N 09°16' W 079°55'1 0.5
2018-Apr-22 11:18N 09°17' W 079°55'0 1.3
2018-Apr-22 10:56N 09°17' W 079°55'1 3.2
2018-Apr-22 10:30N 09°19' W 079°55'3 6.0
2018-Apr-22 10:00N 09°22' W 079°55'3 5.0
2018-Apr-22 09:30N 09°24' W 079°55'3 6.2
2018-Apr-22 09:00N 09°27' W 079°55'4 3.2
2018-Apr-22 07:53N 09°27' W 079°59'1 0.1
2018-Apr-21 17:27N 09°26' W 079°58'0 0.0
2018-Apr-21 16:57N 09°26' W 079°58'0 0.0
2018-Apr-21 14:39N 09°26' W 079°58'0 0.0
2018-Apr-21 14:21N 09°26' W 079°58'0 0.0
2018-Apr-21 12:30N 09°26' W 079°58'0 0.0
2018-Apr-21 10:48N 09°26' W 079°58'0 0.0
2018-Apr-21 10:27N 09°26' W 079°58'0 0.0
2018-Apr-21 05:21N 09°26' W 079°58'0 0.0
2018-Apr-21 04:57N 09°26' W 079°58'0 0.0
2018-Apr-21 04:21N 09°26' W 079°58'0 0.0
2018-Apr-21 03:38N 09°26' W 079°58'0 0.3
2018-Apr-21 03:28N 09°26' W 079°58'0 0.2
2018-Apr-21 03:00N 09°26' W 079°58'0 0.2
2018-Apr-21 02:27N 09°27' W 079°58'1 1.9
2018-Apr-21 02:00N 09°26' W 079°59'2 3.1
2018-Apr-21 01:30N 09°28' W 079°59'3 6.8
2018-Apr-21 00:59N 09°31' W 079°58'4 8.3
2018-Apr-21 00:29N 09°33' W 079°54'  
2018-Apr-15 12:17N 29°28' W 094°51'3 9.4
2018-Apr-15 11:58N 29°31' W 094°53'510.4
2018-Apr-15 11:30N 29°35' W 094°56'5 9.8
2018-Apr-15 11:00N 29°39' W 094°58'4 8.4
2018-Apr-15 10:30N 29°43' W 095°01'3 6.0
2018-Apr-15 09:59N 29°45' W 095°04'2 4.4
2018-Apr-15 09:27N 29°44' W 095°06'2 5.2
2018-Apr-15 09:00N 29°44' W 095°09'3 4.3
2018-Apr-15 08:18N 29°44' W 095°13'1 4.4
2018-Apr-15 08:00N 29°43' W 095°14'0 0.8
2018-Apr-15 07:30N 29°44' W 095°14'  
Track history (hours):
 
Tides and Currents Weather Stations Pressure Air Temp Water Temp Dewpoint Dewpoint Depression Visibility Wind Speed Wind Dir Waves Ship Positions

Alpine Mystery

Last reported at 2018-Apr-22 13:13 UTC. Time now 2018-Apr-22 14:35 UTC.
Position N 09°14' W 079°56'.

Length 183 m; draft 10.5 m.

Type: Tanker. MMSI: 477595800.

Date/timePositionNaut miles runAvg speedWind from/ knotsBaromVisibWave heightAir tempDewpointWater temp
2018-Apr-22 13:13N 09°14' W 079°56'2 4.8
2018-Apr-22 12:45N 09°16' W 079°55'0 1.9
2018-Apr-22 12:30N 09°16' W 079°55'1 0.5
2018-Apr-22 11:18N 09°17' W 079°55'0 1.3
2018-Apr-22 10:56N 09°17' W 079°55'1 3.2
2018-Apr-22 10:30N 09°19' W 079°55'3 6.0
2018-Apr-22 10:00N 09°22' W 079°55'3 5.0
2018-Apr-22 09:30N 09°24' W 079°55'3 6.2
2018-Apr-22 09:00N 09°27' W 079°55'4 3.2
2018-Apr-22 07:53N 09°27' W 079°59'1 0.1
2018-Apr-21 17:27N 09°26' W 079°58'0 0.0
2018-Apr-21 16:57N 09°26' W 079°58'0 0.0
2018-Apr-21 14:39N 09°26' W 079°58'0 0.0
2018-Apr-21 14:21N 09°26' W 079°58'0 0.0
2018-Apr-21 12:30N 09°26' W 079°58'0 0.0
2018-Apr-21 10:48N 09°26' W 079°58'0 0.0
2018-Apr-21 10:27N 09°26' W 079°58'0 0.0
2018-Apr-21 05:21N 09°26' W 079°58'0 0.0
2018-Apr-21 04:57N 09°26' W 079°58'0 0.0
2018-Apr-21 04:21N 09°26' W 079°58'0 0.0
2018-Apr-21 03:38N 09°26' W 079°58'0 0.3
2018-Apr-21 03:28N 09°26' W 079°58'0 0.2
2018-Apr-21 03:00N 09°26' W 079°58'0 0.2
2018-Apr-21 02:27N 09°27' W 079°58'1 1.9
2018-Apr-21 02:00N 09°26' W 079°59'2 3.1
2018-Apr-21 01:30N 09°28' W 079°59'3 6.8
2018-Apr-21 00:59N 09°31' W 079°58'4 8.3
2018-Apr-21 00:29N 09°33' W 079°54'  
2018-Apr-15 12:17N 29°28' W 094°51'3 9.4
2018-Apr-15 11:58N 29°31' W 094°53'510.4
2018-Apr-15 11:30N 29°35' W 094°56'5 9.8
2018-Apr-15 11:00N 29°39' W 094°58'4 8.4
2018-Apr-15 10:30N 29°43' W 095°01'3 6.0
2018-Apr-15 09:59N 29°45' W 095°04'2 4.4
2018-Apr-15 09:27N 29°44' W 095°06'2 5.2
2018-Apr-15 09:00N 29°44' W 095°09'3 4.3
2018-Apr-15 08:18N 29°44' W 095°13'1 4.4
2018-Apr-15 08:00N 29°43' W 095°14'0 0.8
2018-Apr-15 07:30N 29°44' W 095°14'  

Dump ship's entire track history